Time;durP1;ratioP1;P1;durP2;ratioP2;P2;SDS_P1;SDS_P2;PMS_P1;PMS_P2;Temp;Humidity;BMP_temperature;BMP_pressure;BME280_temperature;BME280_humidity;BME280_pressure;Samples;Min_cycle;Max_cycle;Signal;HPM_P1;HPM_P2
2022/06/05 00:00:05;;;;;;;15.53;6.80;;;22.40;95.00;;;22.89;62.51;95160.31;5073601;28;20477;-55
2022/06/05 00:02:39;;;;;;;14.50;6.37;;;22.40;95.00;;;22.87;62.26;95159.72;5073780;28;20838;-54
2022/06/05 00:05:12;;;;;;;10.07;6.40;;;22.40;95.00;;;22.87;62.11;95159.72;5071908;28;20497;-55
2022/06/05 00:07:44;;;;;;;10.20;6.90;;;22.40;95.00;;;22.85;62.08;95153.75;5068547;28;20529;-54
2022/06/05 00:10:17;;;;;;;9.30;6.13;;;22.40;95.00;;;22.85;62.20;95163.63;5072126;28;20471;-54
2022/06/05 00:12:50;;;;;;;7.40;5.90;;;22.40;95.00;;;22.81;62.28;95160.56;5074023;28;20449;-53
2022/06/05 00:15:17;;;;;;;7.03;5.53;;;22.30;95.00;;;22.79;62.65;95159.94;5071885;28;20483;-52
2022/06/05 00:17:44;;;;;;;15.70;7.07;;;22.30;95.00;;;22.78;62.35;95152.94;5069656;28;20459;-55
2022/06/05 00:20:13;;;;;;;14.10;6.33;;;22.30;95.00;;;22.76;62.39;95155.00;5068001;28;20479;-55
2022/06/05 00:22:41;;;;;;;20.40;6.40;;;22.30;95.00;;;22.73;62.19;95161.59;5067681;28;20451;-55
2022/06/05 00:25:09;;;;;;;15.73;5.80;;;22.30;95.00;;;22.72;62.32;95156.44;5067492;28;20496;-55
2022/06/05 00:27:48;;;;;;;23.20;6.80;;;22.20;94.90;;;22.70;62.20;95158.53;5066877;28;20470;-55
2022/06/05 00:30:21;;;;;;;27.30;6.00;;;22.20;94.90;;;22.66;62.85;95166.13;5062192;28;21113;-54
2022/06/05 00:32:50;;;;;;;8.93;6.40;;;22.20;94.90;;;22.65;62.38;95163.66;5078890;28;20822;-56
2022/06/05 00:35:21;;;;;;;11.37;6.70;;;22.20;95.10;;;22.63;62.00;95176.47;5077635;28;20496;-55
2022/06/05 00:37:59;;;;;;;9.63;6.10;;;22.10;95.10;;;22.60;62.27;95166.16;5078805;28;20493;-55
2022/06/05 00:40:37;;;;;;;7.60;5.87;;;22.10;94.90;;;22.56;62.60;95166.56;5082025;28;20922;-55
2022/06/05 00:43:08;;;;;;;21.40;5.97;;;22.10;94.90;;;22.52;62.15;95165.31;5071124;28;20454;-56
2022/06/05 00:45:35;;;;;;;6.93;5.90;;;22.00;94.80;;;22.49;62.06;95164.91;5074482;28;20512;-53
2022/06/05 00:48:03;;;;;;;8.90;6.60;;;22.00;94.80;;;22.44;62.30;95162.88;5078680;28;20571;-59
2022/06/05 00:50:32;;;;;;;7.63;6.10;;;22.00;94.80;;;22.41;62.14;95162.47;5078078;28;20470;-55
2022/06/05 00:53:02;;;;;;;14.27;6.50;;;21.90;95.00;;;22.37;62.59;95156.69;5076301;28;20459;-54
2022/06/05 00:55:30;;;;;;;12.43;6.50;;;21.90;95.10;;;22.33;62.65;95166.97;5076182;28;20591;-54
2022/06/05 00:57:58;;;;;;;9.00;5.70;;;21.90;95.20;;;22.30;62.39;95162.03;5072944;28;20450;-55
2022/06/05 01:00:32;;;;;;;12.03;6.33;;;21.90;95.30;;;22.26;62.75;95160.78;5071776;28;20863;-53
2022/06/05 01:03:00;;;;;;;8.70;6.10;;;21.80;95.30;;;22.23;62.92;95157.66;5072696;28;20461;-54
2022/06/05 01:05:28;;;;;;;11.40;6.50;;;21.80;95.30;;;22.19;62.55;95166.13;5073643;28;20507;-55
2022/06/05 01:07:57;;;;;;;7.53;6.80;;;21.80;95.40;;;22.16;62.95;95160.34;5070449;28;20862;-54
2022/06/05 01:10:27;;;;;;;7.43;6.70;;;21.70;95.30;;;22.12;63.23;95159.94;5072020;28;20488;-54
2022/06/05 01:12:59;;;;;;;12.60;7.13;;;21.70;95.40;;;22.09;62.93;95157.69;5066792;28;20544;-55
2022/06/05 01:15:30;;;;;;;9.50;6.93;;;21.60;95.50;;;22.06;62.79;95160.78;5067485;28;20476;-53
2022/06/05 01:18:02;;;;;;;9.10;6.90;;;21.60;95.50;;;22.03;63.09;95156.63;5069739;28;20895;-54
2022/06/05 01:20:42;;;;;;;10.10;6.97;;;21.60;95.70;;;22.01;63.54;95155.19;5070226;28;20489;-53
2022/06/05 01:23:45;;;;;;;12.37;6.53;;;21.60;95.80;;;21.98;63.57;95153.75;5065482;28;20463;-55
2022/06/05 01:26:22;;;;;;;9.80;7.63;;;21.50;95.90;;;21.94;63.31;95152.50;5067685;28;20506;-53
2022/06/05 01:28:55;;;;;;;13.07;6.30;;;21.50;95.70;;;21.90;63.57;95155.78;5070796;28;20979;-54
2022/06/05 01:31:26;;;;;;;7.70;7.00;;;21.40;95.80;;;21.87;63.85;95157.00;5068373;28;20512;-53
2022/06/05 01:34:11;;;;;;;20.73;7.27;;;21.40;96.00;;;21.85;63.92;95157.22;5065505;28;20454;-55
2022/06/05 01:36:43;;;;;;;14.17;6.43;;;21.40;96.20;;;21.84;63.94;95158.25;5073185;28;21041;-52
2022/06/05 01:39:13;;;;;;;8.20;7.30;;;21.40;96.60;;;21.83;64.00;95161.94;5069006;28;20481;-55
2022/06/05 01:41:44;;;;;;;10.60;6.73;;;21.40;96.30;;;21.83;63.94;95158.47;5080116;28;20455;-55
2022/06/05 01:44:15;;;;;;;12.40;6.37;;;21.40;96.30;;;21.83;64.23;95156.59;5074538;28;20454;-53
2022/06/05 01:46:42;;;;;;;13.63;7.13;;;21.40;96.40;;;21.85;64.15;95165.25;5078211;28;20481;-54
2022/06/05 01:49:15;;;;;;;8.67;7.03;;;21.40;96.40;;;21.86;64.41;95155.38;5072946;28;20454;-55
2022/06/05 01:51:50;;;;;;;10.03;6.23;;;21.40;96.50;;;21.87;64.21;95142.81;5074053;28;20455;-55
2022/06/05 01:54:21;;;;;;;9.70;7.30;;;21.40;96.50;;;21.88;64.04;95158.66;5072830;28;20729;-54
2022/06/05 01:56:51;;;;;;;11.97;7.50;;;21.40;96.50;;;21.89;63.95;95154.97;5077243;28;20536;-55
2022/06/05 01:59:23;;;;;;;11.53;7.50;;;21.40;96.40;;;21.90;64.43;95150.44;5078440;28;20461;-53
2022/06/05 02:01:53;;;;;;;10.70;7.10;;;21.40;96.50;;;21.88;63.99;95149.81;5076301;28;20453;-56
2022/06/05 02:04:22;;;;;;;18.00;6.73;;;21.40;96.50;;;21.89;64.14;95159.47;5076595;28;20461;-52
2022/06/05 02:06:56;;;;;;;7.60;6.50;;;21.40;96.50;;;21.87;64.26;95150.84;5076832;28;20493;-55
2022/06/05 02:09:26;;;;;;;11.17;8.07;;;21.40;96.50;;;21.85;63.93;95151.84;5075215;28;20494;-54
2022/06/05 02:11:55;;;;;;;12.90;7.80;;;21.40;96.50;;;21.85;63.97;95145.69;5072808;28;20446;-55
2022/06/05 02:14:22;;;;;;;13.97;6.57;;;21.40;96.50;;;21.83;64.06;95140.53;5071786;28;20537;-55
2022/06/05 02:16:50;;;;;;;15.47;7.37;;;21.40;96.50;;;21.82;63.97;95148.75;5072807;28;20474;-55
2022/06/05 02:19:18;;;;;;;23.23;7.37;;;21.30;96.30;;;21.78;64.38;95148.34;5078232;28;20481;-60
2022/06/05 02:21:46;;;;;;;13.73;8.47;;;21.30;96.40;;;21.76;64.33;95147.72;5074757;28;21027;-55
2022/06/05 02:24:13;;;;;;;16.10;7.97;;;21.30;96.50;;;21.75;64.00;95145.25;5072148;28;20461;-54
2022/06/05 02:26:41;;;;;;;7.87;7.10;;;21.30;96.40;;;21.73;64.23;95152.66;5067922;28;20501;-53
2022/06/05 02:29:15;;;;;;;8.63;6.67;;;21.30;96.60;;;21.71;64.32;95155.53;5071097;28;20455;-54
2022/06/05 02:31:52;;;;;;;13.40;6.57;;;21.20;96.50;;;21.69;64.01;95146.91;5061825;28;20575;-55
2022/06/05 02:34:30;;;;;;;11.47;7.03;;;21.20;96.30;;;21.65;64.20;95145.63;5072760;28;20469;-56
2022/06/05 02:37:03;;;;;;;11.93;7.33;;;21.20;96.30;;;21.63;64.08;95140.47;5065387;28;20442;-55
2022/06/05 02:39:37;;;;;;;11.73;6.40;;;21.20;96.40;;;21.60;64.12;95129.38;5078548;28;20532;-55
2022/06/05 02:42:14;;;;;;;10.63;7.20;;;21.20;96.40;;;21.54;64.00;95132.84;5082239;28;20446;-55
2022/06/05 02:44:49;;;;;;;8.00;6.73;;;21.10;96.40;;;21.48;64.70;95131.75;5080486;28;20484;-55
2022/06/05 02:47:20;;;;;;;11.50;6.97;;;21.00;96.60;;;21.46;64.59;95136.50;5073247;28;20477;-53
2022/06/05 02:49:55;;;;;;;16.20;8.20;;;21.00;96.70;;;21.43;64.85;95137.72;5075379;28;20478;-55
2022/06/05 02:52:23;;;;;;;8.70;6.93;;;21.00;96.80;;;21.43;64.73;95135.03;5078978;28;20976;-54
2022/06/05 02:55:03;;;;;;;9.93;6.97;;;21.00;97.00;;;21.42;64.86;95136.06;5075724;28;20481;-53
2022/06/05 02:57:30;;;;;;;16.73;8.20;;;21.00;97.10;;;21.40;64.89;95129.28;5080732;28;20538;-55
2022/06/05 02:59:59;;;;;;;13.47;7.57;;;21.00;97.10;;;21.39;65.02;95131.09;5077555;28;20488;-54
2022/06/05 03:05:10;;;;;;;12.67;7.07;;;20.90;97.10;;;21.40;65.06;95126.59;5075604;28;20848;-54
2022/06/05 03:07:38;;;;;;;11.73;7.33;;;21.00;97.20;;;21.40;65.23;95130.09;5074617;28;20512;-53
2022/06/05 03:10:06;;;;;;;10.47;7.07;;;20.90;97.20;;;21.41;65.12;95133.56;5073925;28;20486;-53
2022/06/05 03:12:33;;;;;;;11.27;7.20;;;20.90;97.30;;;21.41;65.19;95142.44;5075460;28;20474;-53
2022/06/05 03:15:02;;;;;;;9.87;7.30;;;21.00;97.30;;;21.42;65.21;95145.94;5071152;28;20482;-53
2022/06/05 03:17:30;;;;;;;11.27;7.33;;;21.00;97.40;;;21.41;65.51;95138.94;5069103;28;20470;-55
2022/06/05 03:19:57;;;;;;;10.60;7.23;;;21.00;97.20;;;21.38;65.25;95144.69;5071975;28;20505;-55
2022/06/05 03:22:24;;;;;;;12.97;7.20;;;20.90;97.20;;;21.37;65.26;95143.06;5073139;28;20461;-55
2022/06/05 03:24:52;;;;;;;12.97;8.07;;;20.90;97.40;;;21.37;65.43;95143.06;5071710;28;20896;-55
2022/06/05 03:27:20;;;;;;;10.90;7.53;;;20.90;97.50;;;21.37;65.50;95143.88;5070282;28;20494;-54
2022/06/05 03:29:48;;;;;;;10.43;7.23;;;20.90;97.60;;;21.39;65.53;95149.84;5071401;28;21006;-55
2022/06/05 03:32:16;;;;;;;18.80;7.60;;;20.90;97.60;;;21.41;65.71;95153.16;5069872;28;20482;-55
2022/06/05 03:34:44;;;;;;;11.43;8.07;;;20.90;97.70;;;21.43;65.60;95155.63;5070838;28;21024;-54
2022/06/05 03:37:11;;;;;;;16.20;7.70;;;21.00;97.70;;;21.46;65.41;95157.91;5069667;28;20477;-54
2022/06/05 03:39:40;;;;;;;21.83;8.73;;;21.00;98.00;;;21.48;65.43;95159.34;5067676;28;20485;-53
2022/06/05 03:42:07;;;;;;;18.60;8.40;;;21.00;97.60;;;21.52;65.40;95157.13;5074404;28;20459;-52
2022/06/05 03:44:37;;;;;;;9.83;7.83;;;21.00;97.60;;;21.53;65.39;95156.09;5080504;28;20506;-55
2022/06/05 03:47:05;;;;;;;13.40;8.30;;;21.10;97.60;;;21.56;65.33;95162.91;5077034;28;20509;-55
2022/06/05 03:49:34;;;;;;;16.13;7.83;;;21.10;97.50;;;21.57;65.11;95162.69;5078272;28;20497;-56
2022/06/05 03:52:02;;;;;;;9.00;7.43;;;21.10;97.50;;;21.61;65.17;95168.47;5075414;28;20914;-54
2022/06/05 03:54:29;;;;;;;20.50;8.03;;;21.10;97.40;;;21.59;65.05;95173.22;5081682;28;20481;-54
2022/06/05 03:56:57;;;;;;;18.63;8.87;;;21.10;97.30;;;21.59;65.14;95175.88;5074136;28;20462;-55
2022/06/05 03:59:24;;;;;;;14.43;8.27;;;21.10;97.40;;;21.59;65.28;95174.03;5076692;28;20482;-54
2022/06/05 04:01:51;;;;;;;13.03;7.57;;;21.20;97.50;;;21.63;64.99;95169.13;5071023;28;20531;-54
2022/06/05 04:04:19;;;;;;;9.00;7.40;;;21.20;97.60;;;21.65;65.24;95175.91;5077940;28;20465;-55
2022/06/05 04:06:48;;;;;;;15.63;7.90;;;21.20;97.60;;;21.69;65.22;95175.50;5074232;28;20494;-55
2022/06/05 04:09:15;;;;;;;14.97;8.50;;;21.20;97.60;;;21.72;65.21;95175.94;5076834;28;20462;-53
2022/06/05 04:11:42;;;;;;;19.80;8.43;;;21.20;97.50;;;21.75;65.29;95172.84;5072255;28;20959;-54
2022/06/05 04:14:10;;;;;;;13.90;9.13;;;21.30;97.50;;;21.80;64.90;95180.28;5071695;28;20459;-55
2022/06/05 04:16:38;;;;;;;16.93;8.07;;;21.30;97.60;;;21.83;64.92;95175.34;5071550;28;20520;-54
2022/06/05 04:19:06;;;;;;;11.50;8.50;;;21.40;97.30;;;21.87;64.79;95167.72;5070685;28;20469;-56
2022/06/05 04:21:35;;;;;;;15.93;10.50;;;21.40;97.30;;;21.91;64.72;95174.34;5074283;28;20854;-54
2022/06/05 04:24:04;;;;;;;16.37;9.77;;;21.40;97.30;;;21.94;64.36;95170.44;5071910;28;20447;-54
2022/06/05 04:26:33;;;;;;;16.87;9.07;;;21.40;97.10;;;21.97;64.37;95165.47;5069259;28;20485;-55
2022/06/05 04:29:01;;;;;;;21.53;8.70;;;21.50;97.10;;;22.02;64.54;95167.56;5073064;28;20560;-55
2022/06/05 04:31:30;;;;;;;15.07;8.23;;;21.50;97.00;;;22.06;64.21;95160.78;5071531;28;20957;-56
2022/06/05 04:33:59;;;;;;;17.00;8.63;;;21.60;96.90;;;22.09;63.95;95155.00;5063558;28;20478;-55
2022/06/05 04:36:27;;;;;;;18.50;7.97;;;21.60;96.90;;;22.15;64.20;95161.38;5064872;28;20478;-55
2022/06/05 04:38:54;;;;;;;13.43;8.17;;;21.60;96.90;;;22.20;64.20;95158.94;5066924;28;20466;-56
2022/06/05 04:41:24;;;;;;;15.93;7.40;;;21.70;96.90;;;22.25;63.94;95152.94;5065644;28;20466;-55
2022/06/05 04:43:52;;;;;;;15.10;7.93;;;21.80;96.90;;;22.29;64.71;95148.81;5072258;28;20446;-54
2022/06/05 04:46:20;;;;;;;14.93;7.80;;;21.80;97.00;;;22.31;64.23;95147.63;5080904;28;20496;-55
2022/06/05 04:48:47;;;;;;;11.60;7.67;;;21.80;96.90;;;22.36;63.69;95145.13;5072047;28;20470;-54
2022/06/05 04:51:15;;;;;;;13.60;8.43;;;21.80;96.80;;;22.40;63.80;95140.16;5078212;28;21140;-54
2022/06/05 04:53:42;;;;;;;13.30;8.90;;;21.90;96.70;;;22.44;64.08;95146.78;5078098;28;20681;-56
2022/06/05 04:56:12;;;;;;;31.13;8.70;;;21.90;96.70;;;22.51;63.75;95152.13;5073983;28;20477;-56
2022/06/05 04:58:40;;;;;;;13.40;7.90;;;22.00;96.80;;;22.56;64.00;95155.03;5074087;28;20560;-55
2022/06/05 05:01:11;;;;;;;19.00;8.80;;;22.00;96.80;;;22.63;64.23;95160.38;5077528;28;21017;-55
2022/06/05 05:03:38;;;;;;;9.90;8.07;;;22.10;96.90;;;22.70;64.05;95153.97;5074850;28;20863;-54
2022/06/05 05:06:06;;;;;;;15.80;8.60;;;22.20;96.80;;;22.78;63.53;95160.97;5068818;28;20474;-55
2022/06/05 05:08:33;;;;;;;9.30;8.10;;;22.30;96.80;;;22.86;63.62;95158.06;5070663;28;20438;-54
2022/06/05 05:11:00;;;;;;;17.57;8.50;;;22.30;96.60;;;22.95;63.67;95165.91;5068509;28;20477;-54
2022/06/05 05:13:28;;;;;;;15.93;8.03;;;22.40;96.60;;;23.04;63.10;95164.66;5074592;28;20454;-56
2022/06/05 05:15:57;;;;;;;15.90;7.47;;;22.50;96.50;;;23.14;62.98;95162.38;5074686;28;20990;-55
2022/06/05 05:18:24;;;;;;;22.13;9.50;;;22.60;96.50;;;23.26;62.67;95168.72;5071513;28;20454;-55
2022/06/05 05:20:51;;;;;;;13.37;7.77;;;22.70;96.40;;;23.39;62.92;95169.72;5070844;28;20479;-55
2022/06/05 05:23:19;;;;;;;19.57;8.83;;;22.80;96.50;;;23.53;62.37;95171.31;5071097;28;20454;-55
2022/06/05 05:25:47;;;;;;;11.10;7.80;;;23.00;96.20;;;23.69;62.70;95174.56;5069098;28;20582;-56
2022/06/05 05:28:14;;;;;;;15.73;8.60;;;23.10;96.10;;;23.89;61.94;95179.84;5071698;28;21014;-54
2022/06/05 05:30:45;;;;;;;18.57;9.70;;;23.20;96.20;;;24.08;62.21;95184.28;5073498;28;20466;-54
2022/06/05 05:33:14;;;;;;;13.53;7.93;;;23.50;96.00;;;24.27;61.48;95178.97;5071388;28;20500;-58
2022/06/05 05:35:41;;;;;;;17.90;8.13;;;23.60;95.90;;;24.51;61.70;95183.56;5072090;28;20473;-56
2022/06/05 05:38:08;;;;;;;24.50;8.83;;;23.90;95.70;;;24.73;60.41;95179.69;5071567;28;20459;-55
2022/06/05 05:43:20;;;;;;;16.77;7.90;;;24.30;94.70;;;25.08;59.77;95179.13;5068418;28;20481;-54
2022/06/05 05:45:49;;;;;;;21.57;8.67;;;24.40;94.40;;;25.21;59.57;95181.69;5068812;28;20478;-55
2022/06/05 05:48:17;;;;;;;17.53;8.80;;;24.60;94.20;;;25.33;59.29;95174.56;5074593;28;20494;-54
2022/06/05 05:50:45;;;;;;;13.20;9.50;;;24.70;94.00;;;25.45;59.13;95181.88;5088088;28;20481;-56
2022/06/05 05:53:12;;;;;;;18.80;9.10;;;24.80;94.00;;;25.57;59.16;95174.69;5082235;28;20982;-55
2022/06/05 05:55:40;;;;;;;22.87;8.97;;;24.90;93.80;;;25.69;59.16;95178.25;5082807;28;20470;-59
2022/06/05 05:58:07;;;;;;;15.83;9.43;;;25.00;93.50;;;25.82;58.66;95174.56;5082776;28;20537;-54
2022/06/05 06:00:34;;;;;;;12.33;8.33;;;25.10;93.50;;;25.93;58.59;95179.19;5079659;28;21001;-57
2022/06/05 06:03:02;;;;;;;12.03;8.53;;;25.30;93.50;;;26.05;58.67;95170.34;5078620;28;20447;-55
2022/06/05 06:05:30;;;;;;;18.60;8.43;;;25.40;93.40;;;26.22;58.18;95182.13;5081254;28;20477;-55
2022/06/05 06:07:58;;;;;;;13.70;8.30;;;25.60;93.20;;;26.37;58.18;95189.78;5079439;28;20576;-57
2022/06/05 06:10:25;;;;;;;8.90;7.63;;;25.70;92.90;;;26.51;57.48;95195.78;5080919;28;20481;-54
2022/06/05 06:12:52;;;;;;;15.00;8.90;;;25.80;92.70;;;26.63;57.68;95193.94;5078665;28;20445;-54
2022/06/05 06:15:20;;;;;;;26.40;8.70;;;26.00;92.60;;;26.79;57.57;95197.84;5078748;28;20469;-57
2022/06/05 06:17:48;;;;;;;18.07;8.80;;;26.10;92.60;;;26.94;57.24;95191.16;5071023;28;20434;-54
2022/06/05 06:20:15;;;;;;;18.13;7.33;;;26.20;92.30;;;27.08;56.74;95192.59;5074444;28;20910;-56
2022/06/05 06:22:44;;;;;;;20.20;8.57;;;26.40;92.10;;;27.22;56.82;95185.06;5075950;28;20442;-55
2022/06/05 06:25:11;;;;;;;14.20;8.17;;;26.50;91.90;;;27.38;56.40;95188.94;5073060;28;20476;-55
2022/06/05 06:27:39;;;;;;;20.90;8.33;;;26.60;91.70;;;27.54;56.56;95195.47;5069165;28;20810;-55
2022/06/05 06:30:08;;;;;;;20.47;8.23;;;26.80;91.60;;;27.68;56.29;95182.50;5072033;28;21021;-55
2022/06/05 06:32:36;;;;;;;11.67;8.43;;;26.90;91.30;;;27.84;56.01;95181.75;5068849;28;20454;-56
2022/06/05 06:35:04;;;;;;;11.20;8.50;;;27.10;91.10;;;28.00;55.36;95177.50;5069765;28;20543;-56
2022/06/05 06:37:31;;;;;;;8.43;7.63;;;27.30;90.90;;;28.20;54.83;95173.53;5070960;28;20477;-54
2022/06/05 06:40:00;;;;;;;12.97;6.60;;;27.50;90.60;;;28.36;55.18;95169.19;5070230;28;20478;-57
2022/06/05 06:42:28;;;;;;;12.33;8.63;;;27.60;90.20;;;28.52;54.28;95171.09;5070381;28;20442;-56
2022/06/05 06:44:56;;;;;;;11.57;8.00;;;27.80;89.90;;;28.68;54.45;95174.91;5069009;28;20573;-54
2022/06/05 06:47:23;;;;;;;18.13;8.10;;;27.90;89.20;;;28.86;53.43;95179.25;5066570;28;20493;-57
2022/06/05 06:49:50;;;;;;;17.73;8.23;;;28.10;88.60;;;29.02;53.81;95174.03;5076336;28;20865;-56
2022/06/05 06:52:18;;;;;;;30.67;9.70;;;28.30;87.70;;;29.18;53.28;95169.69;5082678;28;20482;-56
2022/06/05 06:54:47;;;;;;;18.43;8.53;;;28.40;87.30;;;29.33;52.77;95168.03;5081698;28;20474;-56
2022/06/05 06:57:15;;;;;;;14.10;7.53;;;28.60;86.40;;;29.47;52.10;95170.38;5082558;28;20443;-56
2022/06/05 06:59:43;;;;;;;7.00;6.37;;;28.70;85.50;;;29.57;52.25;95170.47;5083787;28;20894;-57
2022/06/05 07:02:10;;;;;;;7.47;6.77;;;28.80;84.70;;;29.69;52.43;95167.66;5079080;28;20445;-54
2022/06/05 07:04:37;;;;;;;18.60;7.97;;;29.00;84.30;;;29.81;52.15;95165.66;5082676;28;20639;-56
2022/06/05 07:07:05;;;;;;;10.80;7.47;;;29.10;83.70;;;29.94;51.57;95169.06;5080618;28;20228;-53
2022/06/05 07:09:33;;;;;;;8.00;6.83;;;29.20;82.90;;;30.06;51.48;95174.34;5080149;28;20466;-57
2022/06/05 07:12:00;;;;;;;10.10;6.83;;;29.30;82.00;;;30.18;51.13;95175.00;5078441;28;20626;-57
2022/06/05 07:14:29;;;;;;;8.97;7.70;;;29.40;81.00;;;30.32;50.19;95172.69;5077195;28;20219;-54
2022/06/05 07:16:56;;;;;;;12.63;6.67;;;29.60;80.10;;;30.44;50.26;95167.94;5074965;28;20192;-54
2022/06/05 07:19:23;;;;;;;14.53;7.10;;;29.70;79.50;;;30.56;49.37;95170.50;5078103;28;20208;-57
2022/06/05 07:21:51;;;;;;;16.73;7.90;;;29.80;79.10;;;30.69;50.03;95171.94;5074530;28;20452;-55
2022/06/05 07:24:19;;;;;;;10.80;6.73;;;29.90;78.80;;;30.81;49.45;95171.78;5075000;28;20317;-58
2022/06/05 07:26:46;;;;;;;28.93;7.73;;;30.00;78.40;;;30.90;49.26;95162.88;5075787;28;20597;-57
2022/06/05 07:29:13;;;;;;;12.00;6.50;;;30.10;77.00;;;31.00;49.31;95156.75;5074293;28;20245;-56
2022/06/05 07:31:42;;;;;;;9.33;6.73;;;30.30;77.00;;;31.13;49.13;95168.22;5073255;28;20578;-56
2022/06/05 07:34:10;;;;;;;23.23;6.80;;;30.40;77.00;;;31.23;48.67;95162.84;5072231;28;20200;-55
2022/06/05 07:36:38;;;;;;;14.83;6.80;;;30.50;76.30;;;31.31;48.25;95162.34;5072086;28;20234;-56
2022/06/05 07:39:05;;;;;;;12.70;5.80;;;30.60;75.50;;;31.44;48.44;95164.56;5070720;28;20207;-54
2022/06/05 07:41:34;;;;;;;7.60;6.77;;;30.70;75.00;;;31.58;48.12;95162.22;5070281;28;20204;-55
2022/06/05 07:44:02;;;;;;;9.57;6.20;;;30.80;75.20;;;31.70;47.93;95158.44;5069507;28;20209;-55
2022/06/05 07:46:30;;;;;;;6.80;6.10;;;30.90;73.80;;;31.77;47.42;95145.44;5065995;28;20208;-55
2022/06/05 07:48:58;;;;;;;11.75;5.93;;;31.00;73.20;;;31.86;47.23;95151.19;5067354;28;20664;-56
2022/06/05 07:54:34;;;;;;;9.65;5.40;;;31.20;70.30;;;32.05;46.26;95141.41;5077950;28;20227;-56
2022/06/05 07:57:03;;;;;;;18.92;6.13;;;31.20;69.30;;;32.19;46.19;95147.19;5082562;28;20212;-55
2022/06/05 07:59:32;;;;;;;10.05;5.80;;;31.40;69.50;;;32.25;45.60;95134.41;5083827;28;20227;-55
2022/06/05 08:02:03;;;;;;;13.52;6.88;;;31.50;68.30;;;32.33;44.87;95139.31;5078169;28;20203;-57
2022/06/05 08:04:32;;;;;;;7.50;6.30;;;31.50;66.90;;;32.44;45.22;95140.16;5076171;28;20319;-55
2022/06/05 08:07:00;;;;;;;6.28;5.68;;;31.60;67.00;;;32.50;45.06;95141.78;5080428;28;20360;-55
2022/06/05 08:09:28;;;;;;;7.93;5.95;;;31.70;66.40;;;32.60;44.78;95146.44;5078767;28;20247;-56
2022/06/05 08:11:55;;;;;;;13.45;5.43;;;31.80;65.60;;;32.71;44.87;95139.91;5079796;28;20677;-54
2022/06/05 08:14:22;;;;;;;8.80;5.25;;;31.90;65.30;;;32.83;44.17;95136.91;5073779;28;20208;-55
2022/06/05 08:16:50;;;;;;;11.75;5.18;;;32.00;64.30;;;32.95;43.89;95133.88;5074366;28;20631;-55
2022/06/05 08:19:20;;;;;;;14.95;5.43;;;32.20;63.80;;;33.06;44.11;95139.06;5071536;28;20214;-55
2022/06/05 08:21:49;;;;;;;12.75;5.53;;;32.20;63.60;;;33.18;43.96;95129.75;5075353;28;20208;-54
2022/06/05 08:24:16;;;;;;;11.02;5.20;;;32.40;63.10;;;33.27;43.45;95124.59;5074945;28;20205;-55
2022/06/05 08:26:43;;;;;;;8.75;5.50;;;32.50;62.30;;;33.36;42.35;95131.09;5075806;28;20207;-55
2022/06/05 08:29:11;;;;;;;9.05;5.97;;;32.50;59.90;;;33.49;42.95;95129.69;5073783;28;20227;-55
2022/06/05 08:31:38;;;;;;;7.53;6.07;;;32.60;60.50;;;33.59;42.62;95125.00;5072070;28;20191;-55
2022/06/05 08:34:05;;;;;;;12.77;5.13;;;32.80;60.30;;;33.73;41.96;95130.69;5071348;28;20732;-55
2022/06/05 08:36:33;;;;;;;12.38;5.70;;;32.90;59.90;;;33.88;42.16;95135.28;5071544;28;20574;-56
2022/06/05 08:42:05;;;;;;;5.07;4.45;;;33.20;58.50;;;34.16;41.09;95132.09;5069359;28;20234;-53
2022/06/05 08:44:39;;;;;;;10.65;4.20;;;33.40;58.00;;;34.27;40.73;95125.47;5067732;28;20219;-54
2022/06/05 08:47:12;;;;;;;7.18;4.60;;;33.50;57.50;;;34.38;39.82;95124.31;5066228;28;20199;-57
2022/06/05 08:49:48;;;;;;;13.07;5.43;;;33.60;56.40;;;34.46;39.92;95122.91;5067595;28;20598;-55
2022/06/05 08:52:27;;;;;;;13.35;4.05;;;33.70;55.60;;;34.54;39.40;95114.09;5066655;28;20196;-55
2022/06/05 08:55:00;;;;;;;9.55;4.07;;;33.80;55.00;;;34.61;39.66;95125.50;5072842;28;20231;-54
2022/06/05 08:57:31;;;;;;;8.55;4.60;;;33.80;54.40;;;34.65;38.39;95123.00;5075737;28;20199;-52
2022/06/05 09:00:04;;;;;;;9.82;3.58;;;33.80;54.00;;;34.66;38.01;95122.72;5081741;28;20255;-56
2022/06/05 09:02:40;;;;;;;6.45;3.90;;;33.90;53.30;;;34.65;38.67;95112.88;5080001;28;20195;-55
2022/06/05 09:05:12;;;;;;;13.07;4.82;;;33.90;53.10;;;34.67;39.22;95123.53;5073090;28;20227;-56
2022/06/05 09:07:43;;;;;;;5.38;4.85;;;33.90;53.30;;;34.70;37.94;95105.75;5072478;28;20227;-57
2022/06/05 09:10:15;;;;;;;6.35;4.13;;;33.90;52.30;;;34.77;38.26;95114.47;5078305;28;20219;-54
2022/06/05 09:12:46;;;;;;;5.70;3.47;;;34.00;52.60;;;34.80;37.99;95113.91;5074429;28;20318;-56
2022/06/05 09:15:19;;;;;;;5.15;3.60;;;34.00;52.30;;;34.83;38.24;95108.66;5069430;28;20660;-56
2022/06/05 09:17:53;;;;;;;7.05;3.78;;;34.00;51.60;;;34.85;36.45;95111.09;5073767;28;20188;-54
2022/06/05 09:20:20;;;;;;;11.90;3.75;;;34.10;50.80;;;34.84;37.41;95112.19;5071397;28;20566;-58
2022/06/05 09:22:54;;;;;;;5.53;3.55;;;34.10;50.40;;;34.82;36.65;95109.75;5073816;28;20211;-56
2022/06/05 09:25:39;;;;;;;8.45;3.53;;;34.10;50.00;;;34.81;37.15;95105.41;5074036;28;20227;-55
2022/06/05 09:28:37;;;;;;;7.90;3.40;;;34.00;50.30;;;34.81;36.39;95110.88;5069072;28;20219;-55
2022/06/05 09:31:23;;;;;;;3.50;3.20;;;34.00;50.00;;;34.81;36.28;95099.13;5071900;28;20231;-56
2022/06/05 09:33:50;;;;;;;6.13;3.55;;;34.00;49.60;;;34.79;36.74;95095.88;5064517;28;20595;-55
2022/06/05 09:36:19;;;;;;;6.57;3.88;;;34.00;49.20;;;34.77;36.77;95098.09;5071774;28;20223;-56
2022/06/05 09:38:49;;;;;;;3.80;3.42;;;34.00;49.50;;;34.78;35.84;95099.69;5071276;28;20603;-57
2022/06/05 09:41:29;;;;;;;5.82;3.95;;;34.00;48.90;;;34.81;36.10;95093.66;5068667;28;20284;-55
2022/06/05 09:44:03;;;;;;;5.07;3.17;;;34.00;49.00;;;34.80;36.49;95103.78;5068575;28;20650;-56
2022/06/05 09:46:58;;;;;;;21.35;3.80;;;34.00;49.40;;;34.83;36.01;95092.25;5064461;28;20202;-55
2022/06/05 09:49:34;;;;;;;3.72;3.40;;;34.10;49.40;;;34.90;36.43;95085.66;5064927;28;20332;-56
2022/06/05 09:52:10;;;;;;;4.13;3.47;;;34.10;49.00;;;34.87;35.83;95089.75;5066670;28;20231;-56
2022/06/05 09:54:37;;;;;;;8.02;3.70;;;34.10;48.40;;;34.80;35.65;95092.84;5062889;28;20708;-57
2022/06/05 10:00:14;;;;;;;8.85;3.60;;;34.00;47.60;;;34.71;35.85;95080.06;5080486;28;20695;-55
2022/06/05 10:02:42;;;;;;;8.32;4.45;;;34.00;48.60;;;34.66;36.08;95081.75;5074426;28;20203;-55
2022/06/05 10:05:14;;;;;;;5.53;3.60;;;34.00;48.70;;;34.68;35.89;95077.91;5080328;28;20220;-55
2022/06/05 10:07:45;;;;;;;6.15;3.72;;;34.00;48.60;;;34.65;35.54;95073.81;5083090;28;20242;-56
2022/06/05 10:10:18;;;;;;;18.65;3.25;;;33.90;48.30;;;34.64;35.75;95083.94;5077340;28;20288;-55
2022/06/05 10:12:50;;;;;;;5.43;3.65;;;33.90;48.60;;;34.65;35.83;95074.63;5074420;28;20207;-56
2022/06/05 10:15:22;;;;;;;6.00;2.95;;;33.90;47.60;;;34.64;35.99;95077.66;5078521;28;20614;-54
2022/06/05 10:17:53;;;;;;;3.92;3.25;;;33.90;47.60;;;34.61;35.77;95076.34;5075541;28;20188;-56
2022/06/05 10:21:01;;;;;;;8.60;3.90;;;33.90;47.60;;;34.60;34.84;95066.50;5072798;28;20216;-56
2022/06/05 10:23:49;;;;;;;8.95;4.28;;;33.90;47.60;;;34.60;35.53;95071.97;5072326;28;20591;-55
2022/06/05 10:26:30;;;;;;;7.78;3.67;;;33.90;48.20;;;34.60;35.48;95061.03;5077162;28;20231;-55
2022/06/05 10:29:12;;;;;;;4.38;3.65;;;33.80;47.80;;;34.64;35.41;95050.34;5074073;28;20227;-55
2022/06/05 10:31:41;;;;;;;3.38;3.08;;;33.90;48.20;;;34.65;35.96;95051.97;5075609;28;20199;-57
2022/06/05 10:34:16;;;;;;;4.88;3.55;;;33.90;47.80;;;34.66;35.92;95059.88;5072007;28;20220;-55
2022/06/05 10:36:59;;;;;;;14.70;3.72;;;33.90;48.30;;;34.67;35.74;95052.50;5073305;28;20278;-54
2022/06/05 10:39:33;;;;;;;5.28;3.78;;;33.90;48.10;;;34.65;36.08;95047.31;5073798;28;20224;-55
2022/06/05 10:42:32;;;;;;;9.98;3.35;;;33.90;47.90;;;34.60;35.30;95044.63;5070108;28;20196;-55